Aviation Digital Data Service (ADDS)

Output produced by TAFs form (1142 UTC 17 July 2018)
found at http://www.aviationweather.gov/adds/tafs/
 
KDAB 171053Z 23003KT 7SM FEW030 FEW100 BKN250 24/24 A3007 RMK SLP183 T02440244
KDAB 171121Z 1712/1812 21003KT P6SM FEW030 BKN250 
     FM171400 23006KT P6SM SCT025 SCT250 
     FM171800 21007KT P6SM VCTS SCT045CB SCT250 
     FM180000 21004KT P6SM FEW050 SCT080 BKN150 
     FM180400 20003KT P6SM BKN250